Text Box: All records at near 07:00 local time
Kleivo 1 weather for Aug 2011
Updated 21.08.2011 20:22:23 Month no. 57
Obs.
Da.
Temp. Dew Point Precip. Wind
Speed
Wind gusts Cloud cover Press. Humidity Wind dir. Sunny OPT
01.08.2011 13,1 10,2 0,0 0,0 0,0 1 996,6 83,0     70,0 %
02.08.2011 14,2 11,3 0,0 1,6 3,2 1 1000,0 83,0 180,0   70,0 %
03.08.2011 15,6 12,7 0,0 0,0 0,0 1 999,7 83,0     72,5 %
04.08.2011 16,3 13,1 0,0 0,0 0,0 1 995,6 81,0     72,5 %
05.08.2011 17,8 12,3 0,0 9,7 9,7 1 985,1 70,0 135,0   70,0 %
06.08.2011 12,4 9,8 0,0 0,0 0,0 1 986,8 84,0     67,5 %
07.08.2011 8,8 6,2 0,0 1,6 1,6 1 975,3 84,0 0,0   65,0 %
08.08.2011 11,6 8,8 0,0 3,2 4,8 1 971,6 83,0 180,0   67,5 %
09.08.2011 11,4 8,8 0,0 1,6 1,6 1 980,7 84,0 247,5   67,5 %
10.08.2011 7,5 4,9 0,0 0,0 0,0 1 992,9 84,0     65,0 %
11.08.2011 6,4 3,9 0,0 3,2 4,8 1 989,2 84,0 0,0   62,5 %
12.08.2011 7,9 5,2 0,0 0,0 0,0 1 993,2 83,0     65,0 %
13.08.2011 12,8 8,9 0,0 8,0 9,7 0 991,5 77,0 90,0   62,5 %
14.08.2011 17,3 10,4 0,0 1,6 14,5 0 985,8 64,0 157,5   70,0 %
15.08.2011 12,8 9,9 1,0 0,0 0,0 0 986,1 83,0     67,5 %
16.08.2011 8,9 6,3 0,0 0,0 0,0 0 993,6 84,0     62,5 %
17.08.2011 8,1 5,4 0,0 0,0 0,0 0 991,5 83,0     62,5 %
18.08.2011 9,6 6,8 0,0 0,0 0,0 0 996,3 83,0     62,5 %
19.08.2011 10,4 7,4 0,0 0,0 1,6 0 990,2 82,0     65,0 %
20.08.2011 12,2 8,8 0,0 1,6 4,8 1 992,6 80,0 135,0   67,5 %
21.08.2011 13,0 9,6 0,0 4,8 3,2 1 993,6 80,0 135,0   67,5 %
22.08.2011 11,6 8,8 0,0 0,0 3,2 0 993,2 83,0     65,0 %
23.08.2011 10,2 7,4 0,0 1,6 1,6 0 1001,7 83,0 0,0   65,0 %
24.08.2011 11,8 8,8 0,0 0,0 1,6 1 994,2 82,0     67,5 %
25.08.2011 12,4 9,4 0,0 4,8 3,2 1 994,2 82,0 135,0   65,0 %
26.08.2011 14,7 11,1 0,0 4,8 11,3 1 992,2 79,0 180,0   67,5 %
27.08.2011 17,5 14,0 0,0 3,2 3,2 1 981,0 80,0 157,5   75,0 %
28.08.2011 12,1 8,9 0,0 9,7 14,5 1 980,4 81,0 180,0   62,5 %
29.08.2011 12,5 7,6 0,0 0,0 0,0 1 973,6 72,0     70,0 %
30.08.2011 10,2 7,3 0,0 1,6 1,6 1 984,4 82,0 292,5   67,5 %
31.08.2011 10,8 7,8 0,0 0,0 0,0 1 987,5 82,0     67,5 %
Avrg/Sum 12,0 8,8 1,0 2,0 3,2 0,7 989,4 80,9 137,8   66,9 %